Time;durP1;ratioP1;P1;durP2;ratioP2;P2;SDS_P1;SDS_P2;PMS_P1;PMS_P2;Temp;Humidity;BMP_temperature;BMP_pressure;BME280_temperature;BME280_humidity;BME280_pressure;Samples;Min_cycle;Max_cycle;Signal;HPM_P1;HPM_P2
2021/11/12 00:12:24;;;;;;;48.10;43.20;;;;;;;;;;4880582;29;20424;-93
2021/11/12 00:14:53;;;;;;;54.30;44.43;;;;;;;;;;4880001;29;20482;-93
2021/11/12 00:17:23;;;;;;;51.72;46.45;;;;;;;;;;4880385;29;20594;-93
2021/11/12 00:19:52;;;;;;;51.03;45.83;;;;;;;;;;4880276;29;20221;-93
2021/11/12 00:22:22;;;;;;;51.03;45.63;;;;;;;;;;4880082;29;20218;-93
2021/11/12 00:24:54;;;;;;;51.07;45.87;;;;;;;;;;4880106;29;20613;-93
2021/11/12 00:27:23;;;;;;;51.53;46.03;;;;;;;;;;4884821;29;20424;-93
2021/11/12 00:29:58;;;;;;;53.63;45.97;;;;;;;;;;4879851;29;20488;-93
2021/11/12 00:32:35;;;;;;;56.83;46.93;;;;;;;;;;4878097;29;20515;-92
2021/11/12 00:35:09;;;;;;;51.43;45.73;;;;;;;;;;4877766;29;20487;-93
2021/11/12 00:37:56;;;;;;;48.87;44.00;;;;;;;;;;4899992;29;20439;-93
2021/11/12 00:40:28;;;;;;;55.63;49.07;;;;;;;;;;4917724;28;20434;-93
2021/11/12 00:46:08;;;;;;;51.30;45.67;;;;;;;;;;4904782;29;20444;-94
2021/11/12 00:48:38;;;;;;;49.70;44.53;;;;;;;;;;4955736;28;20436;-93
2021/11/12 00:51:24;;;;;;;48.63;43.63;;;;;;;;;;4976816;28;20445;-93
2021/11/12 00:53:53;;;;;;;51.03;45.63;;;;;;;;;;4983556;28;20463;-93
2021/11/12 00:56:24;;;;;;;53.17;47.20;;;;;;;;;;4979521;28;20483;-94
2021/11/12 00:58:52;;;;;;;50.77;45.53;;;;;;;;;;4976248;28;20452;-92
2021/11/12 01:01:19;;;;;;;52.37;44.70;;;;;;;;;;4976062;28;20436;-92
2021/11/12 01:03:47;;;;;;;48.77;43.63;;;;;;;;;;4976103;28;20443;-93
2021/11/12 01:06:15;;;;;;;52.50;47.20;;;;;;;;;;4975925;28;20419;-93
2021/11/12 01:08:43;;;;;;;53.23;46.90;;;;;;;;;;4975926;28;20460;-93
2021/11/12 01:11:11;;;;;;;65.10;51.30;;;;;;;;;;4975870;28;20536;-92
2021/11/12 01:13:40;;;;;;;54.17;48.47;;;;;;;;;;4975790;28;20492;-93
2021/11/12 01:16:08;;;;;;;56.83;48.23;;;;;;;;;;4975415;28;20509;-92
2021/11/12 01:18:36;;;;;;;57.67;47.93;;;;;;;;;;4975548;28;20867;-93
2021/11/12 01:21:04;;;;;;;56.20;47.83;;;;;;;;;;4992970;28;20478;-93
2021/11/12 01:23:33;;;;;;;54.60;45.57;;;;;;;;;;5036281;28;20488;-93
2021/11/12 01:26:01;;;;;;;52.10;46.40;;;;;;;;;;5018717;28;20890;-93
2021/11/12 01:28:28;;;;;;;49.07;43.73;;;;;;;;;;5036121;28;20463;-93
2021/11/12 01:30:57;;;;;;;51.10;44.30;;;;;;;;;;5035843;28;20459;-93
2021/11/12 01:33:25;;;;;;;50.17;44.87;;;;;;;;;;5035628;28;20496;-93
2021/11/12 01:35:55;;;;;;;54.37;47.90;;;;;;;;;;5036111;28;20929;-93
2021/11/12 01:38:23;;;;;;;50.00;44.72;;;;;;;;;;5035894;28;20450;-93
2021/11/12 01:40:50;;;;;;;51.27;44.77;;;;;;;;;;5036099;28;20665;-93
2021/11/12 01:43:20;;;;;;;50.93;45.93;;;;;;;;;;5036056;28;20459;-93
2021/11/12 01:45:55;;;;;;;51.07;45.50;;;;;;;;;;5035644;28;20472;-93
2021/11/12 01:51:10;;;;;;;50.20;44.80;;;;;;;;;;5034935;28;20446;-93
2021/11/12 01:53:39;;;;;;;52.50;47.13;;;;;;;;;;5035490;28;20497;-92
2021/11/12 01:59:13;;;;;;;50.90;45.80;;;;;;;;;;5035629;28;20462;-93
2021/11/12 02:01:44;;;;;;;51.53;45.83;;;;;;;;;;5035780;28;20889;-93
2021/11/12 02:04:13;;;;;;;52.87;46.87;;;;;;;;;;5035497;28;20471;-93
2021/11/12 02:06:41;;;;;;;54.27;47.13;;;;;;;;;;5035474;28;20445;-91
2021/11/12 02:09:13;;;;;;;52.57;47.00;;;;;;;;;;5035664;28;20472;-91
2021/11/12 02:11:41;;;;;;;51.10;45.50;;;;;;;;;;5035437;28;20442;-93
2021/11/12 02:14:09;;;;;;;53.90;47.53;;;;;;;;;;5035053;28;20558;-90
2021/11/12 02:16:41;;;;;;;50.57;45.20;;;;;;;;;;5001496;28;20458;-92
2021/11/12 02:19:09;;;;;;;51.43;45.53;;;;;;;;;;5035388;28;20476;-91
2021/11/12 02:21:45;;;;;;;51.30;45.77;;;;;;;;;;5035278;28;20456;-91
2021/11/12 02:24:13;;;;;;;53.67;47.90;;;;;;;;;;5035029;28;20486;-92
2021/11/12 02:26:43;;;;;;;71.27;49.63;;;;;;;;;;5035150;28;20451;-92
2021/11/12 02:29:12;;;;;;;57.27;48.27;;;;;;;;;;5034936;28;20509;-92
2021/11/12 02:31:39;;;;;;;58.97;47.30;;;;;;;;;;5034769;28;20462;-91
2021/11/12 02:34:08;;;;;;;54.23;46.30;;;;;;;;;;5034473;28;20829;-91
2021/11/12 02:36:36;;;;;;;54.37;48.47;;;;;;;;;;5034865;28;20436;-92
2021/11/12 02:39:07;;;;;;;60.30;48.50;;;;;;;;;;5034605;28;20959;-92
2021/11/12 02:41:35;;;;;;;53.07;46.20;;;;;;;;;;5034745;28;20467;-90
2021/11/12 02:44:03;;;;;;;54.17;47.03;;;;;;;;;;5034960;28;20428;-92
2021/11/12 02:46:30;;;;;;;56.23;48.30;;;;;;;;;;5034619;28;20431;-92
2021/11/12 02:48:58;;;;;;;54.33;48.40;;;;;;;;;;5017174;28;20421;-92
2021/11/12 02:51:28;;;;;;;56.97;46.90;;;;;;;;;;5034347;28;20503;-92
2021/11/12 02:53:57;;;;;;;53.70;45.13;;;;;;;;;;5016970;28;20460;-90
2021/11/12 02:56:29;;;;;;;52.53;46.50;;;;;;;;;;5034047;28;20932;-92
2021/11/12 02:59:00;;;;;;;60.90;45.53;;;;;;;;;;5034439;28;20429;-93
2021/11/12 03:01:28;;;;;;;52.97;47.20;;;;;;;;;;5034090;28;20561;-91
2021/11/12 03:03:56;;;;;;;58.63;48.50;;;;;;;;;;5034139;28;20429;-92
2021/11/12 03:06:23;;;;;;;52.83;46.10;;;;;;;;;;5034265;28;20470;-92
2021/11/12 03:08:51;;;;;;;53.80;45.17;;;;;;;;;;5034105;28;20431;-91
2021/11/12 03:11:19;;;;;;;56.80;46.80;;;;;;;;;;5034033;28;20450;-90
2021/11/12 03:13:49;;;;;;;54.37;46.10;;;;;;;;;;5034165;28;20410;-91
2021/11/12 03:16:17;;;;;;;52.57;45.90;;;;;;;;;;5033907;28;20446;-91
2021/11/12 03:18:45;;;;;;;52.70;45.73;;;;;;;;;;5034194;28;20430;-91
2021/11/12 03:21:15;;;;;;;52.53;44.83;;;;;;;;;;5039428;28;20459;-91
2021/11/12 03:23:48;;;;;;;52.13;46.40;;;;;;;;;;5038099;28;20525;-92
2021/11/12 03:29:31;;;;;;;53.07;46.33;;;;;;;;;;5040189;28;20450;-92
2021/11/12 04:02:35;;;;;;;46.37;38.73;;;;;;;;;;4953621;29;20427;-92
2021/11/12 04:05:31;;;;;;;43.03;38.40;;;;;;;;;;4953747;29;20962;-92
2021/11/12 04:19:13;;;;;;;42.43;38.23;;;;;;;;;;4957482;29;20573;-91
2021/11/12 04:21:54;;;;;;;42.37;38.03;;;;;;;;;;4957345;29;20485;-92
2021/11/12 04:41:26;;;;;;;37.23;33.73;;;;;;;;;;5017251;28;20430;-91
2021/11/12 05:34:10;;;;;;;31.07;28.37;;;;;;;;;;4969344;28;20979;-91
2021/11/12 05:44:43;;;;;;;31.97;28.57;;;;;;;;;;4975267;28;20937;-91
2021/11/12 05:50:01;;;;;;;29.90;27.10;;;;;;;;;;4975214;28;20410;-92
2021/11/12 05:55:10;;;;;;;31.73;29.03;;;;;;;;;;4986545;28;20228;-91
2021/11/12 05:57:40;;;;;;;31.75;29.05;;;;;;;;;;4977676;28;20413;-92
2021/11/12 06:00:08;;;;;;;31.60;28.90;;;;;;;;;;4986891;28;20210;-92
2021/11/12 06:02:35;;;;;;;32.77;29.70;;;;;;;;;;4984612;28;20191;-91
2021/11/12 06:05:03;;;;;;;31.67;29.13;;;;;;;;;;4975036;28;20523;-91
2021/11/12 06:07:30;;;;;;;32.23;29.37;;;;;;;;;;4999172;28;20466;-91
2021/11/12 06:09:57;;;;;;;33.00;30.10;;;;;;;;;;5035658;28;20783;-92
2021/11/12 06:12:26;;;;;;;30.77;28.17;;;;;;;;;;5035364;28;20199;-92
2021/11/12 06:14:55;;;;;;;33.30;30.13;;;;;;;;;;5035047;28;20501;-92
2021/11/12 06:17:23;;;;;;;32.30;29.20;;;;;;;;;;5035268;28;20629;-93
2021/11/12 06:19:50;;;;;;;32.37;29.27;;;;;;;;;;5035250;28;20438;-92
2021/11/12 06:22:18;;;;;;;33.53;30.50;;;;;;;;;;5035005;28;20798;-92
2021/11/12 06:24:45;;;;;;;33.60;30.63;;;;;;;;;;5035221;28;20224;-92
2021/11/12 06:27:12;;;;;;;33.90;31.03;;;;;;;;;;5035228;28;20797;-92
2021/11/12 06:29:41;;;;;;;33.40;30.60;;;;;;;;;;5035013;28;20470;-91
2021/11/12 06:32:10;;;;;;;34.07;30.80;;;;;;;;;;5034595;28;20489;-92
2021/11/12 06:34:37;;;;;;;34.20;31.07;;;;;;;;;;5017181;28;20894;-92
2021/11/12 06:37:05;;;;;;;34.87;31.23;;;;;;;;;;5033796;28;20576;-92
2021/11/12 06:39:33;;;;;;;33.90;30.60;;;;;;;;;;5035032;28;20439;-92
2021/11/12 06:42:02;;;;;;;32.67;29.60;;;;;;;;;;5035068;28;20430;-90
2021/11/12 06:44:51;;;;;;;32.27;29.37;;;;;;;;;;5017153;28;20584;-91
2021/11/12 06:50:12;;;;;;;30.77;28.05;;;;;;;;;;5034878;28;20429;-94
2021/11/12 06:52:41;;;;;;;28.73;26.23;;;;;;;;;;5017141;28;20204;-92
2021/11/12 06:55:09;;;;;;;27.43;25.23;;;;;;;;;;5033693;28;20956;-94
2021/11/12 06:57:37;;;;;;;28.33;25.90;;;;;;;;;;5034171;28;20428;-91
2021/11/12 07:00:06;;;;;;;26.35;24.35;;;;;;;;;;5035432;28;20440;-93
2021/11/12 07:02:35;;;;;;;24.77;22.97;;;;;;;;;;5034843;28;20743;-94
2021/11/12 07:05:02;;;;;;;24.20;22.33;;;;;;;;;;5034848;28;20458;-95
2021/11/12 07:07:30;;;;;;;25.97;23.97;;;;;;;;;;5034733;28;20414;-95
2021/11/12 07:09:57;;;;;;;26.77;24.67;;;;;;;;;;5034666;28;20413;-94
2021/11/12 07:12:24;;;;;;;23.70;22.00;;;;;;;;;;5034765;28;20927;-91
2021/11/12 07:14:52;;;;;;;25.77;23.83;;;;;;;;;;5034444;28;20494;-93
2021/11/12 07:17:19;;;;;;;28.43;26.27;;;;;;;;;;5032626;28;20550;-92
2021/11/12 07:19:49;;;;;;;28.98;26.63;;;;;;;;;;5032799;28;20422;-92
2021/11/12 07:22:17;;;;;;;27.85;25.65;;;;;;;;;;5034360;28;20207;-92
2021/11/12 07:24:45;;;;;;;28.42;26.40;;;;;;;;;;5034175;28;20230;-93
2021/11/12 07:27:13;;;;;;;25.27;23.48;;;;;;;;;;5034224;28;20239;-93
2021/11/12 07:29:43;;;;;;;29.37;26.70;;;;;;;;;;5034271;28;20232;-94
2021/11/12 07:32:12;;;;;;;27.58;25.45;;;;;;;;;;5016589;28;20433;-93
2021/11/12 07:34:40;;;;;;;28.75;26.40;;;;;;;;;;5034240;28;20201;-93
2021/11/12 07:37:11;;;;;;;27.33;25.23;;;;;;;;;;5034869;28;20224;-93
2021/11/12 07:39:48;;;;;;;31.35;29.02;;;;;;;;;;5034308;28;20475;-94
2021/11/12 07:42:22;;;;;;;30.40;28.00;;;;;;;;;;5034327;28;20204;-94
2021/11/12 07:45:00;;;;;;;30.02;27.23;;;;;;;;;;5034460;28;20457;-94
2021/11/12 07:47:28;;;;;;;30.45;27.98;;;;;;;;;;5033713;28;20226;-92
2021/11/12 07:49:56;;;;;;;27.17;24.73;;;;;;;;;;5016670;28;20612;-93
2021/11/12 07:52:27;;;;;;;30.55;27.95;;;;;;;;;;5016335;28;20525;-93
2021/11/12 07:54:55;;;;;;;31.75;29.15;;;;;;;;;;5016696;28;20231;-93
2021/11/12 07:57:23;;;;;;;31.38;28.45;;;;;;;;;;5034195;28;20189;-93
2021/11/12 07:59:50;;;;;;;29.83;27.33;;;;;;;;;;5034235;28;20215;-93
2021/11/12 08:02:18;;;;;;;30.43;28.03;;;;;;;;;;5032649;28;20428;-93
2021/11/12 08:04:47;;;;;;;28.38;26.17;;;;;;;;;;5034323;28;20542;-93
2021/11/12 08:07:14;;;;;;;26.05;24.08;;;;;;;;;;5033846;28;20282;-91
2021/11/12 08:09:51;;;;;;;32.83;29.87;;;;;;;;;;5033594;28;20650;-87
2021/11/12 08:12:21;;;;;;;28.92;26.58;;;;;;;;;;5013965;28;20435;-93
2021/11/12 08:17:49;;;;;;;31.13;28.27;;;;;;;;;;4998603;28;20666;-93
2021/11/12 08:20:22;;;;;;;32.42;29.50;;;;;;;;;;5014935;28;20458;-94
2021/11/12 08:22:56;;;;;;;32.53;29.60;;;;;;;;;;5018631;28;20221;-96
2021/11/12 08:25:28;;;;;;;28.97;26.67;;;;;;;;;;5019789;28;20432;-95
2021/11/12 08:30:58;;;;;;;31.05;28.50;;;;;;;;;;5016949;28;20195;-96
2021/11/12 08:33:41;;;;;;;31.95;29.35;;;;;;;;;;4995996;28;20229;-95
2021/11/12 08:39:03;;;;;;;34.13;30.98;;;;;;;;;;4996272;28;20442;-93
2021/11/12 08:41:35;;;;;;;25.27;23.43;;;;;;;;;;4993382;28;20241;-93
2021/11/12 08:44:09;;;;;;;34.60;31.07;;;;;;;;;;4994590;28;20453;-96
2021/11/12 08:46:41;;;;;;;35.80;32.40;;;;;;;;;;4994192;28;20459;-94
2021/11/12 08:49:12;;;;;;;35.27;32.00;;;;;;;;;;4994368;28;20448;-94
2021/11/12 08:51:41;;;;;;;35.60;32.10;;;;;;;;;;4994353;28;20444;-95
2021/11/12 08:54:09;;;;;;;37.17;33.85;;;;;;;;;;4994886;28;20576;-96
2021/11/12 08:56:38;;;;;;;35.67;32.50;;;;;;;;;;4994310;28;20678;-90
2021/11/12 08:59:07;;;;;;;33.13;30.27;;;;;;;;;;4995469;28;20412;-95
2021/11/12 09:01:35;;;;;;;34.90;31.70;;;;;;;;;;5001022;28;20877;-86
2021/11/12 09:04:02;;;;;;;35.13;32.13;;;;;;;;;;4998335;28;20419;-88
2021/11/12 09:06:30;;;;;;;33.10;30.33;;;;;;;;;;4998760;28;20452;-96
2021/11/12 09:08:57;;;;;;;34.10;31.10;;;;;;;;;;4998505;28;20453;-91
2021/11/12 09:11:24;;;;;;;36.43;32.87;;;;;;;;;;4997295;28;20941;-91
2021/11/12 09:13:56;;;;;;;34.67;31.50;;;;;;;;;;4997186;28;20447;-88
2021/11/12 09:16:30;;;;;;;34.77;31.57;;;;;;;;;;4997360;28;20709;-91
2021/11/12 09:18:58;;;;;;;33.67;30.50;;;;;;;;;;4998018;28;20487;-91
2021/11/12 09:21:27;;;;;;;33.17;30.27;;;;;;;;;;4998547;28;20193;-91
2021/11/12 09:23:55;;;;;;;32.97;30.03;;;;;;;;;;4998216;28;20310;-90
2021/11/12 09:26:22;;;;;;;32.57;29.97;;;;;;;;;;4997689;28;20921;-94
2021/11/12 09:28:50;;;;;;;34.15;31.00;;;;;;;;;;5003889;28;20947;-93
2021/11/12 09:31:19;;;;;;;35.20;32.00;;;;;;;;;;4997523;28;20195;-89
2021/11/12 09:33:47;;;;;;;33.00;30.20;;;;;;;;;;5012207;28;20457;-92
2021/11/12 09:36:14;;;;;;;35.90;32.50;;;;;;;;;;5016135;28;20859;-90
2021/11/12 09:38:43;;;;;;;32.13;29.43;;;;;;;;;;5017960;28;20444;-91
2021/11/12 09:41:11;;;;;;;32.93;30.13;;;;;;;;;;4999698;28;20437;-90
2021/11/12 09:43:39;;;;;;;34.22;31.40;;;;;;;;;;5017680;28;20441;-90
2021/11/12 09:46:10;;;;;;;33.43;30.20;;;;;;;;;;5016770;28;20263;-91
2021/11/12 09:48:40;;;;;;;33.67;30.40;;;;;;;;;;5016954;28;20407;-93
2021/11/12 09:51:07;;;;;;;35.13;32.03;;;;;;;;;;5017303;28;20446;-88
2021/11/12 09:53:34;;;;;;;33.97;30.80;;;;;;;;;;5017018;28;20930;-90
2021/11/12 09:56:03;;;;;;;36.10;33.00;;;;;;;;;;5016878;28;20816;-91
2021/11/12 09:58:31;;;;;;;34.43;31.40;;;;;;;;;;5018837;28;20814;-90
2021/11/12 10:00:59;;;;;;;36.23;32.70;;;;;;;;;;5019068;28;20440;-89
2021/11/12 10:03:32;;;;;;;35.30;32.40;;;;;;;;;;5016897;28;20502;-91
2021/11/12 10:06:02;;;;;;;34.63;31.63;;;;;;;;;;5016238;28;20494;-91
2021/11/12 10:08:30;;;;;;;35.40;32.20;;;;;;;;;;5016124;28;20925;-91
2021/11/12 10:10:59;;;;;;;36.43;33.10;;;;;;;;;;5015647;28;20447;-90
2021/11/12 10:13:29;;;;;;;35.20;31.90;;;;;;;;;;5016298;28;20436;-87
2021/11/12 10:16:10;;;;;;;36.03;32.50;;;;;;;;;;5015707;28;20491;-88
2021/11/12 10:18:38;;;;;;;34.70;31.27;;;;;;;;;;5015798;28;20942;-92
2021/11/12 10:21:06;;;;;;;32.60;29.77;;;;;;;;;;5015730;28;20418;-91
2021/11/12 10:23:37;;;;;;;33.27;30.17;;;;;;;;;;5016887;28;20496;-91
2021/11/12 10:26:05;;;;;;;32.33;29.17;;;;;;;;;;5015762;28;20411;-90
2021/11/12 10:28:40;;;;;;;30.60;27.90;;;;;;;;;;4998280;28;20430;-89
2021/11/12 10:31:11;;;;;;;32.90;29.90;;;;;;;;;;5015285;28;20468;-92
2021/11/12 10:33:39;;;;;;;33.80;30.80;;;;;;;;;;5015427;28;20488;-88
2021/11/12 10:36:09;;;;;;;34.57;31.43;;;;;;;;;;5015210;28;20980;-87
2021/11/12 10:38:41;;;;;;;34.10;30.63;;;;;;;;;;5015186;28;20541;-88
2021/11/12 10:41:16;;;;;;;35.77;32.67;;;;;;;;;;5024852;28;20925;-92
2021/11/12 10:43:43;;;;;;;32.13;29.30;;;;;;;;;;5034879;28;20445;-87
2021/11/12 10:46:11;;;;;;;31.93;29.20;;;;;;;;;;5034743;28;20444;-86
2021/11/12 10:48:39;;;;;;;32.87;30.07;;;;;;;;;;5034918;28;20409;-86
2021/11/12 10:51:18;;;;;;;32.77;30.07;;;;;;;;;;5034808;28;20838;-85
2021/11/12 10:53:49;;;;;;;33.97;30.77;;;;;;;;;;5034406;28;20446;-86
2021/11/12 10:56:16;;;;;;;35.37;31.97;;;;;;;;;;5017282;28;20981;-86
2021/11/12 10:58:58;;;;;;;34.30;31.17;;;;;;;;;;5034740;28;20921;-86
2021/11/12 11:01:32;;;;;;;33.83;30.87;;;;;;;;;;5017515;28;20443;-87
2021/11/12 11:04:15;;;;;;;31.77;29.00;;;;;;;;;;5034566;28;20425;-86
2021/11/12 11:06:44;;;;;;;33.23;30.43;;;;;;;;;;5034798;28;20447;-86
2021/11/12 11:09:12;;;;;;;32.70;29.93;;;;;;;;;;5034148;28;20522;-85
2021/11/12 11:11:40;;;;;;;32.07;29.27;;;;;;;;;;5020169;28;20459;-86
2021/11/12 11:14:27;;;;;;;32.67;30.00;;;;;;;;;;5014371;28;20491;-86
2021/11/12 11:16:55;;;;;;;33.10;30.20;;;;;;;;;;5014118;28;20477;-87
2021/11/12 11:19:37;;;;;;;34.00;31.17;;;;;;;;;;5014342;28;20491;-87
2021/11/12 11:22:11;;;;;;;34.90;31.80;;;;;;;;;;5012987;28;20220;-84
2021/11/12 11:24:39;;;;;;;32.90;29.90;;;;;;;;;;5033339;28;20889;-85
2021/11/12 11:27:07;;;;;;;32.27;29.67;;;;;;;;;;5016917;28;20432;-95
2021/11/12 11:29:36;;;;;;;31.77;29.13;;;;;;;;;;5034300;28;20801;-86
2021/11/12 11:32:05;;;;;;;32.90;30.10;;;;;;;;;;5033890;28;20445;-86
2021/11/12 11:34:34;;;;;;;32.37;29.60;;;;;;;;;;5034151;28;20480;-87
2021/11/12 11:37:03;;;;;;;32.03;29.23;;;;;;;;;;5016503;28;20563;-87
2021/11/12 11:39:32;;;;;;;32.47;29.67;;;;;;;;;;5034309;28;20474;-87
2021/11/12 11:42:02;;;;;;;32.47;29.77;;;;;;;;;;5034614;28;20430;-86
2021/11/12 11:44:29;;;;;;;31.40;28.90;;;;;;;;;;5035450;28;20417;-86
2021/11/12 11:47:01;;;;;;;31.27;28.63;;;;;;;;;;5043181;28;20410;-88
2021/11/12 11:49:29;;;;;;;34.07;31.10;;;;;;;;;;5054139;28;20409;-88
2021/11/12 11:51:57;;;;;;;32.57;29.80;;;;;;;;;;5039704;28;20481;-88
2021/11/12 11:54:27;;;;;;;31.47;28.63;;;;;;;;;;5040485;28;20436;-87
2021/11/12 11:56:56;;;;;;;31.93;29.23;;;;;;;;;;5038699;28;20473;-88
2021/11/12 11:59:28;;;;;;;31.97;29.47;;;;;;;;;;5021699;28;20413;-86
2021/11/12 12:01:56;;;;;;;31.07;28.67;;;;;;;;;;5037129;28;20474;-87
2021/11/12 12:04:27;;;;;;;32.77;29.77;;;;;;;;;;5040289;28;20409;-86
2021/11/12 12:07:19;;;;;;;31.20;28.60;;;;;;;;;;5040317;28;20502;-88
2021/11/12 12:09:48;;;;;;;34.50;31.70;;;;;;;;;;5034718;28;20465;-87
2021/11/12 12:12:37;;;;;;;32.30;29.50;;;;;;;;;;5015899;28;20450;-88
2021/11/12 12:15:24;;;;;;;32.90;30.17;;;;;;;;;;5017337;28;20414;-85
2021/11/12 12:17:52;;;;;;;35.30;32.13;;;;;;;;;;4999527;28;20463;-87
2021/11/12 12:20:29;;;;;;;33.40;30.30;;;;;;;;;;5015628;28;20440;-87
2021/11/12 12:32:23;;;;;;;33.00;30.40;;;;;;;;;;5017473;28;20440;-86
2021/11/12 13:22:22;;;;;;;30.50;28.20;;;;;;;;;;4961550;29;20429;-89
2021/11/12 13:24:54;;;;;;;32.17;29.37;;;;;;;;;;4964841;28;20455;-92
2021/11/12 13:27:22;;;;;;;32.60;29.87;;;;;;;;;;4967397;29;20510;-91
2021/11/12 13:29:51;;;;;;;32.00;29.20;;;;;;;;;;4968211;28;20429;-91
2021/11/12 13:32:18;;;;;;;32.33;29.63;;;;;;;;;;4966222;28;20522;-92
2021/11/12 13:34:55;;;;;;;32.77;30.07;;;;;;;;;;4966026;28;20459;-91
2021/11/12 13:37:27;;;;;;;32.40;29.50;;;;;;;;;;4964301;29;20473;-92
2021/11/12 13:40:06;;;;;;;32.00;29.33;;;;;;;;;;4965335;28;20493;-93
2021/11/12 13:42:44;;;;;;;30.87;28.37;;;;;;;;;;4962781;28;20440;-92
2021/11/12 13:45:22;;;;;;;30.97;28.50;;;;;;;;;;4960680;29;20492;-90
2021/11/12 13:48:09;;;;;;;30.20;28.00;;;;;;;;;;4964145;28;20546;-91
2021/11/12 13:50:37;;;;;;;31.67;29.07;;;;;;;;;;4964357;28;20501;-91
2021/11/12 13:53:07;;;;;;;30.07;27.87;;;;;;;;;;4964009;29;21085;-89
2021/11/12 13:55:36;;;;;;;31.17;28.80;;;;;;;;;;4977497;28;20515;-92
2021/11/12 13:58:05;;;;;;;30.43;28.20;;;;;;;;;;5021728;28;20462;-92
2021/11/12 14:00:33;;;;;;;29.83;27.60;;;;;;;;;;5023508;28;20429;-92
2021/11/12 14:03:04;;;;;;;33.23;30.43;;;;;;;;;;5024323;28;20486;-96
2021/11/12 14:05:32;;;;;;;31.80;29.33;;;;;;;;;;5010357;28;20460;-90
2021/11/12 14:08:04;;;;;;;31.30;28.87;;;;;;;;;;5021891;28;20422;-90
2021/11/12 14:10:50;;;;;;;31.20;28.90;;;;;;;;;;5027750;28;20444;-90
2021/11/12 14:13:25;;;;;;;32.83;30.03;;;;;;;;;;5038647;28;20455;-90
2021/11/12 14:16:00;;;;;;;32.10;29.57;;;;;;;;;;5045221;28;20429;-89
2021/11/12 14:18:43;;;;;;;30.67;28.20;;;;;;;;;;5028476;28;20468;-90
2021/11/12 14:24:05;;;;;;;31.67;29.17;;;;;;;;;;5046134;28;20449;-89
2021/11/12 14:29:30;;;;;;;28.40;26.33;;;;;;;;;;5045181;28;20434;-91
2021/11/12 14:37:41;;;;;;;31.90;29.20;;;;;;;;;;5042307;28;20450;-91
2021/11/12 14:40:18;;;;;;;31.10;28.57;;;;;;;;;;5046138;28;20413;-90
2021/11/12 14:43:09;;;;;;;31.17;28.77;;;;;;;;;;5046561;28;20429;-89
2021/11/12 14:45:46;;;;;;;31.87;29.40;;;;;;;;;;5047810;28;20432;-92
2021/11/12 14:48:22;;;;;;;30.40;28.10;;;;;;;;;;5045580;28;20979;-92
2021/11/12 14:50:58;;;;;;;31.50;29.00;;;;;;;;;;5027355;28;20936;-91
2021/11/12 14:53:30;;;;;;;29.97;27.60;;;;;;;;;;5041046;28;20417;-91
2021/11/12 14:56:05;;;;;;;31.03;28.57;;;;;;;;;;5035444;28;20439;-91
2021/11/12 14:58:33;;;;;;;33.27;30.23;;;;;;;;;;5034466;28;20461;-91
2021/11/12 15:01:09;;;;;;;31.73;29.13;;;;;;;;;;5036113;28;20458;-91
2021/11/12 15:03:40;;;;;;;32.40;29.07;;;;;;;;;;5035004;28;20433;-92
2021/11/12 15:06:08;;;;;;;29.90;27.70;;;;;;;;;;5018797;28;20426;-91
2021/11/12 15:08:41;;;;;;;30.43;28.20;;;;;;;;;;5034747;28;20433;-91
2021/11/12 15:11:10;;;;;;;30.83;28.23;;;;;;;;;;5017598;28;20490;-91
2021/11/12 15:13:39;;;;;;;30.13;27.73;;;;;;;;;;5036731;28;20872;-91
2021/11/12 15:16:11;;;;;;;29.23;26.93;;;;;;;;;;5017770;28;20418;-91
2021/11/12 15:18:41;;;;;;;30.13;27.60;;;;;;;;;;5031475;28;20514;-91
2021/11/12 15:21:13;;;;;;;29.57;27.27;;;;;;;;;;5015145;28;20483;-88
2021/11/12 15:26:37;;;;;;;30.20;27.80;;;;;;;;;;5010645;28;20466;-88
2021/11/12 15:29:09;;;;;;;30.97;28.37;;;;;;;;;;5002913;28;20426;-90
2021/11/12 15:31:41;;;;;;;29.60;27.10;;;;;;;;;;5037538;28;20398;-89
2021/11/12 15:34:11;;;;;;;30.23;27.93;;;;;;;;;;5011275;28;20571;-89
2021/11/12 15:36:44;;;;;;;29.27;27.03;;;;;;;;;;4995767;28;20435;-88
2021/11/12 15:39:13;;;;;;;32.20;29.60;;;;;;;;;;4995295;28;20480;-89
2021/11/12 15:42:10;;;;;;;31.63;29.00;;;;;;;;;;4995901;28;20424;-90
2021/11/12 15:44:38;;;;;;;32.03;29.53;;;;;;;;;;4995623;28;20467;-90
2021/11/12 15:49:55;;;;;;;31.92;29.30;;;;;;;;;;5290503;23;20247;-91
2021/11/12 15:52:24;;;;;;;42.93;30.03;;;;;;;;;;5029005;28;20197;-91
2021/11/12 15:55:02;;;;;;;34.77;31.70;;;;;;;;;;5033844;28;20429;-91
2021/11/12 16:00:23;;;;;;;35.13;32.33;;;;;;;;;;4982426;28;20411;-93
2021/11/12 16:05:55;;;;;;;37.37;34.17;;;;;;;;;;5015589;28;20451;-92
2021/11/12 16:13:50;;;;;;;38.30;34.60;;;;;;;;;;5023393;28;20436;-93
2021/11/12 16:19:04;;;;;;;36.17;32.87;;;;;;;;;;5042991;28;20441;-91
2021/11/12 16:24:31;;;;;;;41.47;37.47;;;;;;;;;;5044961;28;20426;-92
2021/11/12 16:27:00;;;;;;;39.13;35.37;;;;;;;;;;5039976;28;20505;-92
2021/11/12 16:29:36;;;;;;;39.87;36.07;;;;;;;;;;5039953;28;20484;-91
2021/11/12 16:32:06;;;;;;;38.83;35.13;;;;;;;;;;5038004;28;20498;-92
2021/11/12 16:34:37;;;;;;;39.83;36.07;;;;;;;;;;5039982;28;20424;-91
2021/11/12 16:37:07;;;;;;;37.60;34.00;;;;;;;;;;5050291;28;20437;-91
2021/11/12 16:39:38;;;;;;;40.10;36.30;;;;;;;;;;5038002;28;20450;-91
2021/11/12 16:42:17;;;;;;;39.07;35.60;;;;;;;;;;5039808;28;20457;-91
2021/11/12 16:44:50;;;;;;;38.27;34.53;;;;;;;;;;5038595;28;20458;-91
2021/11/12 16:47:29;;;;;;;42.13;37.93;;;;;;;;;;5037997;28;20433;-88
2021/11/12 16:52:59;;;;;;;38.38;35.08;;;;;;;;;;5041758;28;20448;-91
2021/11/12 16:55:41;;;;;;;40.40;36.70;;;;;;;;;;5057531;28;20208;-92
2021/11/12 16:58:10;;;;;;;43.33;38.90;;;;;;;;;;5057187;28;20468;-91
2021/11/12 17:01:04;;;;;;;39.77;36.03;;;;;;;;;;5058875;28;20419;-93
2021/11/12 17:03:43;;;;;;;43.30;38.77;;;;;;;;;;5057811;28;20417;-93
2021/11/12 17:06:14;;;;;;;42.95;39.22;;;;;;;;;;5057269;28;20512;-90
2021/11/12 17:08:53;;;;;;;38.63;34.63;;;;;;;;;;5055022;28;20253;-90
2021/11/12 17:11:27;;;;;;;38.93;35.13;;;;;;;;;;5057127;28;20524;-91
2021/11/12 17:16:53;;;;;;;42.40;36.10;;;;;;;;;;5043183;28;20782;-91
2021/11/12 17:19:33;;;;;;;41.33;37.03;;;;;;;;;;5064264;28;20528;-92
2021/11/12 17:46:49;;;;;;;36.65;33.13;;;;;;;;;;5062129;28;20554;-89
2021/11/12 17:49:31;;;;;;;32.67;29.87;;;;;;;;;;5062794;28;20234;-89
2021/11/12 18:03:00;;;;;;;35.50;32.30;;;;;;;;;;5058381;28;20199;-89
2021/11/12 18:05:33;;;;;;;40.23;36.60;;;;;;;;;;5058123;28;20417;-89
2021/11/12 18:13:55;;;;;;;39.30;35.60;;;;;;;;;;5062117;28;20195;-90
2021/11/12 21:44:52;;;;;;;29.77;27.40;;;;;;;;;;5035989;28;20203;-90
2021/11/12 21:47:19;;;;;;;29.75;27.58;;;;;;;;;;5036319;28;20450;-90
2021/11/12 21:49:47;;;;;;;31.20;28.80;;;;;;;;;;5045480;28;20239;-90
2021/11/12 21:52:16;;;;;;;30.20;27.90;;;;;;;;;;5059337;28;20420;-90
2021/11/12 21:54:43;;;;;;;27.23;24.83;;;;;;;;;;5057194;28;20187;-88
2021/11/12 21:57:10;;;;;;;30.38;28.08;;;;;;;;;;5040553;28;20882;-91
2021/11/12 21:59:38;;;;;;;30.95;28.50;;;;;;;;;;5057275;28;20233;-91
2021/11/12 22:02:06;;;;;;;27.63;25.63;;;;;;;;;;5039564;28;20204;-90
2021/11/12 22:04:34;;;;;;;31.40;28.70;;;;;;;;;;5057027;28;20415;-91
2021/11/12 22:07:01;;;;;;;29.88;27.77;;;;;;;;;;5056519;28;20427;-91
2021/11/12 22:09:33;;;;;;;29.40;27.20;;;;;;;;;;5055873;28;20199;-90
2021/11/12 22:12:01;;;;;;;30.05;27.60;;;;;;;;;;5055698;28;20415;-91
2021/11/12 22:14:28;;;;;;;29.38;27.10;;;;;;;;;;5055886;28;20623;-89
2021/11/12 22:16:56;;;;;;;29.55;27.35;;;;;;;;;;5056866;28;20211;-87
2021/11/12 22:19:24;;;;;;;31.27;28.80;;;;;;;;;;5056020;28;20420;-88
2021/11/12 22:21:52;;;;;;;28.83;26.50;;;;;;;;;;5038090;28;20194;-87
2021/11/12 22:24:20;;;;;;;29.00;26.77;;;;;;;;;;5056073;28;20446;-88
2021/11/12 22:26:50;;;;;;;27.27;25.38;;;;;;;;;;5041738;28;20287;-88
2021/11/12 22:29:17;;;;;;;28.37;26.27;;;;;;;;;;5055663;28;20267;-88
2021/11/12 22:31:45;;;;;;;29.70;27.50;;;;;;;;;;5055755;28;20444;-88
2021/11/12 22:34:12;;;;;;;28.70;26.60;;;;;;;;;;5059094;28;20416;-88
2021/11/12 22:36:40;;;;;;;28.60;26.70;;;;;;;;;;5060975;28;20460;-90
2021/11/12 22:39:10;;;;;;;27.65;25.55;;;;;;;;;;5059605;28;20486;-90
2021/11/12 22:41:38;;;;;;;26.83;24.93;;;;;;;;;;5059739;28;20191;-91
2021/11/12 22:44:09;;;;;;;27.48;25.48;;;;;;;;;;5055904;28;20459;-89
2021/11/12 22:46:37;;;;;;;26.27;24.27;;;;;;;;;;5056153;28;20257;-89
2021/11/12 22:49:05;;;;;;;28.87;26.77;;;;;;;;;;5056655;28;20829;-89
2021/11/12 22:51:32;;;;;;;28.00;26.10;;;;;;;;;;5056454;28;20501;-89
2021/11/12 22:53:59;;;;;;;27.20;25.30;;;;;;;;;;5055975;28;20453;-89
2021/11/12 22:56:27;;;;;;;28.15;26.15;;;;;;;;;;5056216;28;20442;-89
2021/11/12 22:58:54;;;;;;;26.53;24.70;;;;;;;;;;5058626;28;20715;-87
2021/11/12 23:01:25;;;;;;;27.70;25.57;;;;;;;;;;5057801;28;20416;-88